Time;durP1;ratioP1;P1;durP2;ratioP2;P2;SDS_P1;SDS_P2;PMS_P1;PMS_P2;Temp;Humidity;BMP_temperature;BMP_pressure;BME280_temperature;BME280_humidity;BME280_pressure;Samples;Min_cycle;Max_cycle;Signal;HPM_P1;HPM_P2
2022/07/11 00:00:10;;;;;;;1.52;0.65;;;;;;;16.03;87.15;101417.22;5057518;22;20374;-66
2022/07/11 00:02:37;;;;;;;2.60;0.60;;;;;;;15.82;88.48;101421.66;5062813;28;20021;-64
2022/07/11 00:05:02;;;;;;;1.08;0.52;;;;;;;15.79;88.43;101415.03;5056550;28;20032;-64
2022/07/11 00:07:28;;;;;;;2.50;0.82;;;;;;;15.63;89.24;101414.44;5064849;28;20047;-64
2022/07/11 00:09:54;;;;;;;2.10;0.63;;;;;;;15.60;89.18;101409.75;5054720;28;20041;-63
2022/07/11 00:12:26;;;;;;;1.05;0.80;;;;;;;15.47;89.66;101410.34;5067980;28;20040;-64
2022/07/11 00:14:54;;;;;;;3.13;0.80;;;;;;;15.60;89.39;101412.47;5049762;28;20123;-63
2022/07/11 00:17:20;;;;;;;2.25;0.80;;;;;;;15.60;89.36;101404.31;5054645;28;20041;-64
2022/07/11 00:19:46;;;;;;;1.27;0.80;;;;;;;15.62;89.04;101407.44;5061735;28;20406;-64
2022/07/11 00:22:11;;;;;;;3.03;0.77;;;;;;;15.64;88.94;101405.13;5059707;28;20028;-65
2022/07/11 00:24:37;;;;;;;0.93;0.70;;;;;;;15.56;89.19;101403.50;5057813;28;20106;-64
2022/07/11 00:27:04;;;;;;;1.73;0.77;;;;;;;15.43;89.26;101410.31;5055359;28;20028;-63
2022/07/11 00:29:30;;;;;;;2.45;0.82;;;;;;;15.49;89.47;101406.13;5057163;28;20040;-66
2022/07/11 00:31:56;;;;;;;1.23;0.90;;;;;;;15.46;89.29;101414.22;5062864;28;20035;-65
2022/07/11 00:34:22;;;;;;;1.52;0.77;;;;;;;15.39;89.86;101420.31;5039697;28;20032;-66
2022/07/11 00:36:47;;;;;;;2.42;0.80;;;;;;;15.29;90.27;101415.53;5065722;28;20414;-63
2022/07/11 00:39:13;;;;;;;5.43;0.90;;;;;;;15.38;89.73;101407.91;5056243;28;20046;-63
2022/07/11 00:41:39;;;;;;;3.20;0.52;;;;;;;15.33;89.91;101405.50;5042326;28;20087;-63
2022/07/11 00:44:04;;;;;;;0.88;0.50;;;;;;;15.31;90.34;101407.81;5055913;28;20120;-65
2022/07/11 00:46:30;;;;;;;0.75;0.70;;;;;;;15.27;90.25;101407.00;5057975;28;20547;-63
2022/07/11 00:48:57;;;;;;;1.05;0.52;;;;;;;15.28;90.07;101408.53;5039570;28;20032;-64
2022/07/11 00:51:24;;;;;;;1.60;0.90;;;;;;;15.31;89.97;101413.25;5059344;28;20031;-64
2022/07/11 00:53:55;;;;;;;4.38;0.88;;;;;;;15.32;89.93;101407.44;5059730;28;21571;-63
2022/07/11 00:56:23;;;;;;;0.88;0.75;;;;;;;15.22;89.88;101410.78;5055317;28;20045;-63
2022/07/11 00:58:50;;;;;;;1.40;0.70;;;;;;;15.27;90.16;101415.13;5027885;28;20402;-63
2022/07/11 01:01:16;;;;;;;1.48;0.70;;;;;;;15.23;89.98;101412.34;5043750;28;20411;-64
2022/07/11 01:03:42;;;;;;;1.70;0.60;;;;;;;15.14;90.92;101409.13;5048927;28;20103;-65
2022/07/11 01:06:08;;;;;;;2.80;1.08;;;;;;;15.14;91.05;101416.47;5065718;28;20112;-63
2022/07/11 01:08:38;;;;;;;0.68;0.68;;;;;;;15.10;91.47;101405.59;5064453;28;20045;-63
2022/07/11 01:11:05;;;;;;;2.65;0.95;;;;;;;15.11;91.45;101399.03;5043557;28;20479;-64
2022/07/11 01:13:31;;;;;;;2.95;0.77;;;;;;;15.16;91.10;101409.53;5062110;28;20044;-63
2022/07/11 01:16:12;;;;;;;0.88;0.70;;;;;;;15.09;91.43;101406.75;5056925;28;20032;-63
2022/07/11 01:18:38;;;;;;;;;;;;;;;15.02;92.10;101409.34;5062941;28;20423;-63
2022/07/11 01:21:28;;;;;;;1.38;0.77;;;;;;;15.16;91.40;101406.03;5064331;28;19916;-63
2022/07/11 01:23:56;;;;;;;0.75;0.60;;;;;;;15.16;91.18;101403.31;5056185;28;20043;-62
2022/07/11 01:26:23;;;;;;;2.40;0.88;;;;;;;15.21;91.41;101403.03;5053076;28;20040;-64
2022/07/11 01:28:49;;;;;;;0.70;0.50;;;;;;;15.16;91.67;101406.84;5062491;28;20059;-64
2022/07/11 01:31:15;;;;;;;0.68;0.60;;;;;;;15.24;91.88;101407.72;5067166;28;20060;-63
2022/07/11 01:33:41;;;;;;;2.05;0.95;;;;;;;15.32;91.68;101398.50;5062983;28;20048;-63
2022/07/11 01:36:07;;;;;;;0.73;0.70;;;;;;;15.36;91.08;101393.91;5067493;28;20041;-63
2022/07/11 01:38:33;;;;;;;0.95;0.60;;;;;;;15.24;91.50;101405.78;5060134;28;20036;-63
2022/07/11 01:40:59;;;;;;;2.20;0.82;;;;;;;15.24;91.55;101407.72;5050837;28;20132;-63
2022/07/11 01:43:24;;;;;;;0.50;0.50;;;;;;;15.20;91.75;101396.03;5061008;28;20042;-63
2022/07/11 01:45:54;;;;;;;1.67;0.73;;;;;;;15.29;91.24;101405.44;5055149;28;20037;-64
2022/07/11 01:48:20;;;;;;;0.70;0.50;;;;;;;15.26;91.35;101399.97;5042051;28;20437;-63
2022/07/11 01:50:46;;;;;;;1.30;0.57;;;;;;;15.22;91.49;101397.22;5046060;28;20081;-62
2022/07/11 01:53:12;;;;;;;2.28;0.60;;;;;;;15.28;91.94;101400.41;5059283;28;20025;-64
2022/07/11 01:55:38;;;;;;;2.03;0.65;;;;;;;15.27;91.83;101391.47;5043964;28;20052;-63
2022/07/11 01:58:03;;;;;;;1.50;0.40;;;;;;;15.31;91.44;101392.28;5065515;28;20056;-63
2022/07/11 02:00:29;;;;;;;1.27;0.60;;;;;;;15.24;91.84;101403.06;5051652;28;20033;-63
2022/07/11 02:02:55;;;;;;;0.80;0.65;;;;;;;15.26;91.66;101397.25;5043395;28;20025;-64
2022/07/11 02:05:21;;;;;;;0.80;0.60;;;;;;;15.20;91.71;101399.53;5061015;28;20113;-64
2022/07/11 02:10:30;;;;;;;1.52;0.70;;;;;;;15.17;91.74;101402.97;5067602;28;20038;-63
2022/07/11 02:12:58;;;;;;;0.82;0.45;;;;;;;15.18;91.99;101398.31;5059428;28;20111;-63
2022/07/11 02:15:24;;;;;;;1.60;0.90;;;;;;;15.22;91.99;101399.16;5052846;28;20800;-63
2022/07/11 02:17:49;;;;;;;1.10;0.70;;;;;;;15.18;91.57;101395.59;5044519;28;20059;-63
2022/07/11 02:20:15;;;;;;;3.15;0.70;;;;;;;15.09;92.26;101411.38;5055906;28;20036;-65
2022/07/11 02:22:41;;;;;;;0.60;0.57;;;;;;;15.03;92.20;101402.00;5060316;28;20107;-63
2022/07/11 02:25:06;;;;;;;1.08;0.55;;;;;;;15.02;92.01;101412.03;5065809;28;20033;-63
2022/07/11 02:27:32;;;;;;;0.80;0.70;;;;;;;14.97;92.26;101400.72;5061636;28;20025;-63
2022/07/11 02:29:57;;;;;;;1.85;0.70;;;;;;;14.95;92.30;101400.31;5058847;28;20122;-65
2022/07/11 02:32:23;;;;;;;2.22;0.63;;;;;;;14.78;93.12;101406.25;5066239;28;20028;-64
2022/07/11 02:34:49;;;;;;;1.65;0.80;;;;;;;14.87;92.70;101401.34;5061325;28;20325;-63
2022/07/11 02:37:14;;;;;;;1.02;0.73;;;;;;;14.91;92.74;101411.13;5062622;28;20035;-64
2022/07/11 02:39:40;;;;;;;2.28;0.80;;;;;;;14.86;92.81;101406.00;5056180;28;20067;-64
2022/07/11 02:42:05;;;;;;;0.82;0.60;;;;;;;14.94;92.95;101398.75;5065537;28;20063;-63
2022/07/11 02:44:31;;;;;;;2.47;0.80;;;;;;;14.87;93.02;101404.84;5065875;28;20021;-63
2022/07/11 02:46:56;;;;;;;1.58;0.70;;;;;;;14.76;92.97;101413.97;5065067;28;20036;-63
2022/07/11 02:49:23;;;;;;;1.15;0.80;;;;;;;14.81;93.32;101408.22;5062833;28;20028;-64
2022/07/11 02:51:49;;;;;;;4.63;0.80;;;;;;;14.82;93.04;101407.88;5054162;28;20376;-64
2022/07/11 02:54:14;;;;;;;3.60;0.77;;;;;;;14.79;93.08;101405.88;5061299;28;20054;-63
2022/07/11 02:56:40;;;;;;;2.53;0.90;;;;;;;14.80;92.70;101402.03;5042468;28;20033;-62
2022/07/11 02:59:05;;;;;;;4.35;0.63;;;;;;;14.76;92.80;101403.13;5058298;28;20028;-63
2022/07/11 03:01:31;;;;;;;3.40;0.80;;;;;;;14.70;93.45;101404.59;5064865;28;20099;-63
2022/07/11 03:03:56;;;;;;;0.57;0.57;;;;;;;14.70;92.99;101407.28;5057885;28;20036;-64
2022/07/11 03:06:22;;;;;;;2.53;0.70;;;;;;;14.68;93.29;101407.66;5051414;28;20044;-64
2022/07/11 03:08:48;;;;;;;0.85;0.68;;;;;;;14.55;93.29;101408.22;5061962;28;20032;-65
2022/07/11 03:11:14;;;;;;;2.88;0.70;;;;;;;14.58;93.42;101412.91;5061655;28;20028;-63
2022/07/11 03:13:39;;;;;;;2.83;0.68;;;;;;;14.58;93.60;101410.19;5054629;28;20025;-63
2022/07/11 03:16:05;;;;;;;1.10;0.60;;;;;;;14.60;93.71;101414.09;5060440;28;20036;-64
2022/07/11 03:18:33;;;;;;;1.90;0.60;;;;;;;14.64;93.62;101409.53;5049733;28;20508;-64
2022/07/11 03:20:58;;;;;;;1.45;0.88;;;;;;;14.68;93.54;101409.59;5054478;28;20029;-65
2022/07/11 03:23:24;;;;;;;0.82;0.65;;;;;;;14.54;94.33;101417.50;5056455;28;20694;-63
2022/07/11 03:25:49;;;;;;;2.17;0.77;;;;;;;14.50;94.55;101416.66;5068637;28;20054;-63
2022/07/11 03:28:15;;;;;;;0.55;0.50;;;;;;;14.56;94.66;101420.59;5061353;28;20062;-63
2022/07/11 03:30:40;;;;;;;0.93;0.52;;;;;;;14.48;94.86;101422.44;5062816;28;20029;-64
2022/07/11 03:33:06;;;;;;;0.88;0.70;;;;;;;14.36;94.70;101428.03;5048847;28;20181;-63
2022/07/11 03:35:40;;;;;;;1.67;0.68;;;;;;;14.45;95.35;101421.25;5045093;28;20102;-64
2022/07/11 03:38:06;;;;;;;2.67;0.60;;;;;;;14.37;95.74;101418.75;5057128;28;20364;-64
2022/07/11 03:40:31;;;;;;;1.05;0.80;;;;;;;14.33;96.24;101424.13;5054265;28;20029;-63
2022/07/11 03:42:57;;;;;;;1.70;0.85;;;;;;;14.47;95.90;101429.00;5045479;28;20742;-63
2022/07/11 03:45:23;;;;;;;0.93;0.80;;;;;;;14.61;95.44;101431.16;5055871;28;20455;-62
2022/07/11 03:47:49;;;;;;;2.28;1.00;;;;;;;14.43;96.52;101418.09;5058092;28;20029;-62
2022/07/11 03:50:15;;;;;;;2.40;1.08;;;;;;;14.43;95.94;101431.66;5053883;28;20036;-64
2022/07/11 03:52:40;;;;;;;0.95;0.88;;;;;;;14.53;95.72;101429.47;5063161;28;20044;-63
2022/07/11 03:55:07;;;;;;;1.67;1.05;;;;;;;14.61;95.53;101436.59;5057471;28;20117;-63
2022/07/11 03:57:36;;;;;;;1.10;0.88;;;;;;;14.55;95.49;101435.31;5060223;28;20056;-64
2022/07/11 04:00:07;;;;;;;3.50;1.00;;;;;;;14.53;95.59;101421.34;5058495;28;20032;-62
2022/07/11 04:02:33;;;;;;;1.10;0.60;;;;;;;14.59;96.03;101430.75;5042410;28;20402;-62
2022/07/11 04:05:00;;;;;;;2.03;0.90;;;;;;;14.65;95.86;101434.72;5054479;28;20032;-63
2022/07/11 04:07:28;;;;;;;3.63;0.82;;;;;;;14.76;95.72;101420.19;5055350;28;20048;-63
2022/07/11 04:09:54;;;;;;;2.65;1.10;;;;;;;14.77;95.39;101431.81;5065441;28;20039;-61
2022/07/11 04:12:19;;;;;;;2.67;0.82;;;;;;;14.83;95.59;101427.63;5050024;28;20055;-63
2022/07/11 04:14:45;;;;;;;1.52;1.13;;;;;;;14.92;95.03;101430.91;5047005;28;20033;-63
2022/07/11 04:17:11;;;;;;;4.05;0.82;;;;;;;14.88;95.21;101417.28;5060846;28;20514;-63
2022/07/11 04:19:38;;;;;;;2.00;0.77;;;;;;;14.97;95.36;101427.84;5063308;28;20089;-62
2022/07/11 04:22:04;;;;;;;1.63;0.68;;;;;;;14.92;95.60;101428.97;5053629;28;20029;-63
2022/07/11 04:24:30;;;;;;;4.40;0.93;;;;;;;15.01;95.34;101420.56;5052860;28;20036;-62
2022/07/11 04:26:55;;;;;;;2.05;0.82;;;;;;;15.03;94.73;101423.69;5052950;28;20025;-62
2022/07/11 04:29:21;;;;;;;1.63;0.93;;;;;;;15.12;94.71;101429.63;5054694;28;20115;-62
2022/07/11 04:31:46;;;;;;;4.05;0.88;;;;;;;15.18;94.73;101430.88;5053628;28;20528;-62
2022/07/11 04:34:13;;;;;;;1.20;0.90;;;;;;;15.22;94.73;101434.44;5059342;28;20024;-63
2022/07/11 04:36:39;;;;;;;2.03;0.85;;;;;;;15.22;95.05;101427.06;5063933;28;20058;-62
2022/07/11 04:39:04;;;;;;;1.40;0.85;;;;;;;15.26;94.94;101429.84;5057867;28;20107;-61
2022/07/11 04:41:30;;;;;;;2.75;0.80;;;;;;;15.28;94.96;101435.69;5067201;28;20498;-63
2022/07/11 04:43:55;;;;;;;3.25;0.98;;;;;;;15.28;95.28;101435.69;5045693;28;20390;-60
2022/07/11 04:46:21;;;;;;;4.13;0.95;;;;;;;15.32;95.10;101442.72;5063286;28;20043;-63
2022/07/11 04:48:47;;;;;;;0.98;0.77;;;;;;;15.31;95.43;101443.09;5056160;28;20037;-62
2022/07/11 04:51:12;;;;;;;1.88;1.38;;;;;;;15.37;95.50;101431.53;5052242;28;20039;-63
2022/07/11 04:53:38;;;;;;;3.35;1.00;;;;;;;15.48;95.32;101437.16;5051051;28;20051;-63
2022/07/11 04:56:04;;;;;;;1.55;0.75;;;;;;;15.54;95.00;101426.75;5061610;28;20063;-62
2022/07/11 04:58:32;;;;;;;1.45;0.70;;;;;;;15.54;94.90;101438.41;5061525;28;20098;-63
2022/07/11 05:00:58;;;;;;;1.17;0.70;;;;;;;15.60;94.93;101430.72;5062637;28;20032;-62
2022/07/11 05:03:24;;;;;;;2.85;0.90;;;;;;;15.67;93.50;101441.66;5065894;28;20029;-63
2022/07/11 05:05:50;;;;;;;1.85;1.05;;;;;;;15.67;93.79;101437.00;5033752;28;20024;-62
2022/07/11 05:08:16;;;;;;;0.82;0.73;;;;;;;15.73;94.43;101440.97;5063535;28;20051;-62
2022/07/11 05:10:41;;;;;;;1.58;0.90;;;;;;;15.85;93.50;101437.97;5049225;28;20127;-62
2022/07/11 05:13:07;;;;;;;0.75;0.70;;;;;;;15.91;93.58;101441.19;5061695;28;20037;-63
2022/07/11 05:15:32;;;;;;;4.38;0.90;;;;;;;16.01;93.56;101449.44;5060845;28;20048;-62
2022/07/11 05:17:58;;;;;;;2.25;0.70;;;;;;;16.38;92.87;101443.19;5057378;28;20221;-61
2022/07/11 05:20:23;;;;;;;4.97;0.93;;;;;;;17.11;87.68;101453.94;5059746;28;20025;-62
2022/07/11 05:22:49;;;;;;;1.00;0.65;;;;;;;17.82;86.32;101455.13;5059003;28;20032;-63
2022/07/11 05:25:17;;;;;;;6.15;0.95;;;;;;;18.44;82.81;101448.28;5066726;28;20040;-63
2022/07/11 05:27:43;;;;;;;1.13;0.77;;;;;;;18.97;79.05;101458.44;5057067;28;20036;-62
2022/07/11 05:30:09;;;;;;;4.00;0.98;;;;;;;19.63;76.99;101462.97;5061549;28;20036;-64
2022/07/11 05:32:34;;;;;;;1.10;0.57;;;;;;;19.86;74.41;101460.53;5042967;28;20033;-64
2022/07/11 05:35:02;;;;;;;2.60;0.60;;;;;;;20.33;72.91;101464.59;5059611;28;20037;-63
2022/07/11 05:37:28;;;;;;;0.90;0.57;;;;;;;20.54;70.64;101472.66;5045608;28;20404;-63
2022/07/11 05:39:54;;;;;;;1.77;0.52;;;;;;;20.74;68.40;101460.00;5060213;28;20033;-63
2022/07/11 05:42:19;;;;;;;2.70;0.55;;;;;;;21.06;69.50;101466.00;5059264;28;20032;-63
2022/07/11 05:44:45;;;;;;;0.77;0.35;;;;;;;21.04;68.87;101464.88;5067430;28;20025;-63
2022/07/11 05:47:11;;;;;;;3.17;0.60;;;;;;;21.14;66.64;101461.22;5068757;28;20391;-63
2022/07/11 05:49:36;;;;;;;2.05;0.68;;;;;;;21.37;66.42;101462.16;5060100;28;20028;-63
2022/07/11 05:52:02;;;;;;;0.85;0.40;;;;;;;21.51;65.66;101461.22;5061543;28;20037;-63
2022/07/11 05:54:28;;;;;;;1.50;0.52;;;;;;;21.23;67.71;101467.81;5062132;28;20028;-63
2022/07/11 05:56:54;;;;;;;2.28;0.55;;;;;;;21.11;68.49;101462.84;5053869;28;20067;-62
2022/07/11 05:59:21;;;;;;;1.08;0.50;;;;;;;21.43;68.34;101468.75;5059495;28;20032;-64
2022/07/11 06:01:47;;;;;;;1.50;0.35;;;;;;;21.50;66.85;101465.91;5047204;28;20028;-64
2022/07/11 06:04:33;;;;;;;4.22;0.43;;;;;;;21.58;66.33;101474.06;5047123;28;20437;-65
2022/07/11 06:06:59;;;;;;;0.50;0.30;;;;;;;21.91;66.09;101465.84;5002656;28;20088;-62
2022/07/11 06:09:25;;;;;;;1.10;0.45;;;;;;;22.01;66.21;101469.66;5004167;28;20042;-62
2022/07/11 06:11:51;;;;;;;0.68;0.32;;;;;;;22.13;65.22;101460.84;5002797;28;20046;-64
2022/07/11 06:14:18;;;;;;;2.03;0.50;;;;;;;21.98;62.84;101465.75;4986458;28;20397;-63
2022/07/11 06:16:43;;;;;;;1.65;0.25;;;;;;;21.94;64.02;101469.72;5000399;28;20042;-64
2022/07/11 06:19:09;;;;;;;1.55;0.55;;;;;;;22.07;63.11;101478.97;5001469;28;20064;-63
2022/07/11 06:21:35;;;;;;;1.25;0.47;;;;;;;21.94;62.14;101475.22;5052524;22;20040;-63
2022/07/11 06:24:47;;;;;;;3.00;0.40;;;;;;;22.18;64.41;101480.38;5063675;28;20036;-65
2022/07/11 06:27:12;;;;;;;1.10;0.30;;;;;;;22.23;64.30;101470.91;5054320;28;20441;-65
2022/07/11 06:29:38;;;;;;;4.53;0.45;;;;;;;22.33;62.57;101478.22;5041675;28;20044;-65
2022/07/11 06:32:03;;;;;;;2.03;0.43;;;;;;;22.03;62.52;101475.47;5046380;28;20028;-64
2022/07/11 06:34:29;;;;;;;2.28;0.30;;;;;;;22.30;63.08;101485.31;5044419;28;20071;-65
2022/07/11 06:36:54;;;;;;;0.63;0.40;;;;;;;22.36;61.47;101480.91;5048458;28;20071;-65
2022/07/11 06:39:20;;;;;;;0.55;0.20;;;;;;;22.50;61.58;101485.41;5028169;28;20032;-64
2022/07/11 06:41:46;;;;;;;4.88;0.38;;;;;;;22.54;62.04;101488.09;5043631;28;20032;-63
2022/07/11 06:44:11;;;;;;;4.70;0.55;;;;;;;22.64;62.28;101487.97;5046593;28;20391;-65
2022/07/11 06:46:37;;;;;;;7.18;0.43;;;;;;;22.66;61.33;101493.03;5030375;28;20390;-64
2022/07/11 06:49:02;;;;;;;0.70;0.30;;;;;;;22.72;61.69;101492.16;5048027;28;20029;-62
2022/07/11 06:51:28;;;;;;;0.47;0.20;;;;;;;22.82;61.50;101482.19;5043890;28;20453;-65
2022/07/11 06:53:53;;;;;;;1.52;0.40;;;;;;;22.92;60.27;101494.94;5029055;28;20028;-65
2022/07/11 06:56:19;;;;;;;0.63;0.28;;;;;;;22.97;60.48;101489.78;5047117;28;20033;-64
2022/07/11 06:58:44;;;;;;;1.85;0.47;;;;;;;22.97;60.47;101484.28;5043611;28;20379;-63
2022/07/11 07:01:10;;;;;;;2.10;0.40;;;;;;;23.02;60.27;101483.78;5026862;28;20024;-64
2022/07/11 07:03:35;;;;;;;1.45;0.30;;;;;;;23.11;59.51;101486.75;5044397;28;20041;-64
2022/07/11 07:06:02;;;;;;;0.93;0.30;;;;;;;23.21;59.61;101483.06;5047120;28;20163;-64
2022/07/11 07:08:29;;;;;;;1.58;0.28;;;;;;;23.35;59.28;101484.00;5029128;28;20036;-64
2022/07/11 07:10:55;;;;;;;0.82;0.43;;;;;;;23.37;59.13;101484.38;5043961;28;20507;-63
2022/07/11 07:13:25;;;;;;;0.80;0.20;;;;;;;23.49;58.16;101495.53;5043561;28;20037;-64
2022/07/11 07:15:52;;;;;;;0.50;0.20;;;;;;;23.56;58.69;101487.13;5047216;28;20033;-64
2022/07/11 07:18:41;;;;;;;0.43;0.20;;;;;;;23.66;57.10;101483.41;5043644;28;20026;-64
2022/07/11 07:21:07;;;;;;;0.35;0.30;;;;;;;23.70;58.59;101491.56;4963440;28;20529;-65
2022/07/11 07:23:32;;;;;;;0.10;0.10;;;;;;;23.76;57.29;101493.41;4965831;28;20111;-65
2022/07/11 07:25:58;;;;;;;0.55;0.30;;;;;;;23.71;56.38;101498.66;4962755;28;20046;-64
2022/07/11 07:28:23;;;;;;;0.65;0.30;;;;;;;23.78;56.41;101504.78;4965209;28;20038;-64
2022/07/11 07:30:49;;;;;;;0.32;0.20;;;;;;;23.90;56.10;101498.63;4961521;28;20528;-63
2022/07/11 07:33:14;;;;;;;0.20;0.20;;;;;;;23.97;55.83;101495.72;4966102;28;20469;-66
2022/07/11 07:35:40;;;;;;;1.23;0.40;;;;;;;24.01;56.90;101503.91;4966488;28;20042;-63
2022/07/11 07:38:05;;;;;;;0.20;0.20;;;;;;;24.21;56.37;101492.88;4965443;28;20118;-63
2022/07/11 07:40:31;;;;;;;0.30;0.20;;;;;;;24.28;54.89;101496.25;4963672;28;20445;-63
2022/07/11 07:42:56;;;;;;;1.50;0.20;;;;;;;24.44;55.06;101493.53;4964519;28;20612;-64
2022/07/11 07:45:22;;;;;;;1.27;0.30;;;;;;;24.44;55.94;101496.28;4962221;28;20145;-64
2022/07/11 07:47:48;;;;;;;2.10;0.20;;;;;;;24.51;54.76;101495.31;4960008;28;20039;-63
2022/07/11 07:50:14;;;;;;;0.65;0.22;;;;;;;24.57;55.37;101488.88;4965015;28;20042;-63
2022/07/11 07:52:40;;;;;;;0.20;0.20;;;;;;;24.66;53.15;101496.56;4962466;28;20043;-65
2022/07/11 07:55:06;;;;;;;1.95;0.20;;;;;;;24.81;52.33;101495.81;4957730;28;20047;-65
2022/07/11 07:57:32;;;;;;;4.68;0.30;;;;;;;24.43;53.08;101494.72;4979741;28;20040;-65
2022/07/11 08:02:41;;;;;;;0.80;0.20;;;;;;;24.33;53.02;101489.47;5040112;28;20352;-65
2022/07/11 08:05:09;;;;;;;1.50;0.35;;;;;;;24.39;53.54;101496.78;5043822;28;20116;-64
2022/07/11 08:07:34;;;;;;;1.85;0.30;;;;;;;24.50;53.42;101494.56;5026009;28;20147;-64
2022/07/11 08:10:01;;;;;;;0.30;0.20;;;;;;;24.68;53.61;101494.91;5041255;28;20135;-63
2022/07/11 08:12:27;;;;;;;3.40;0.35;;;;;;;24.80;53.19;101493.47;5048308;28;20441;-64
2022/07/11 08:14:52;;;;;;;3.13;0.30;;;;;;;24.98;53.44;101491.06;5030886;28;20029;-65
2022/07/11 08:17:18;;;;;;;0.17;0.15;;;;;;;25.04;52.68;101498.38;5046380;28;20051;-65
2022/07/11 08:19:43;;;;;;;0.93;0.20;;;;;;;25.18;52.37;101501.97;5028140;28;20040;-64
2022/07/11 08:22:09;;;;;;;0.43;0.22;;;;;;;25.38;51.11;101497.09;5042989;28;20037;-64
2022/07/11 08:24:34;;;;;;;1.20;0.28;;;;;;;25.36;51.16;101491.25;5047904;28;20040;-64
2022/07/11 08:27:00;;;;;;;0.25;0.20;;;;;;;25.47;50.11;101489.00;5043015;28;20407;-64
2022/07/11 08:29:26;;;;;;;1.05;0.30;;;;;;;25.62;50.60;101498.44;5040719;28;20041;-65
2022/07/11 08:31:51;;;;;;;0.38;0.20;;;;;;;25.76;50.59;101496.03;5043008;28;20115;-64
2022/07/11 08:34:17;;;;;;;0.40;0.13;;;;;;;25.88;50.25;101494.50;5044356;28;20033;-65
2022/07/11 08:36:42;;;;;;;1.23;0.20;;;;;;;25.96;50.49;101495.84;5049220;28;21363;-64
2022/07/11 08:39:08;;;;;;;0.57;0.30;;;;;;;25.98;48.74;101500.97;5029778;28;20083;-63
2022/07/11 08:41:42;;;;;;;1.38;0.32;;;;;;;26.01;49.43;101498.09;5046707;28;20064;-65
2022/07/11 08:44:08;;;;;;;0.93;0.20;;;;;;;26.12;48.61;101495.00;5046117;28;20064;-65
2022/07/11 08:46:33;;;;;;;1.05;0.30;;;;;;;26.00;48.47;101491.00;5046005;28;20072;-63
2022/07/11 08:48:59;;;;;;;1.55;0.20;;;;;;;25.82;48.25;101491.50;5029640;28;20483;-64
2022/07/11 08:51:27;;;;;;;0.60;0.20;;;;;;;25.75;48.15;101491.72;5047185;28;20029;-63
2022/07/11 08:53:52;;;;;;;1.42;0.82;;;;;;;25.79;48.00;101495.16;5043750;28;20045;-65
2022/07/11 08:56:20;;;;;;;0.50;0.20;;;;;;;25.83;48.93;101495.06;5035040;28;20028;-63
2022/07/11 08:58:47;;;;;;;1.67;0.30;;;;;;;25.88;48.51;101492.53;5038551;28;20120;-63
2022/07/11 09:01:17;;;;;;;0.90;0.25;;;;;;;26.01;48.56;101498.09;5039731;28;20275;-64
2022/07/11 09:03:44;;;;;;;1.45;0.30;;;;;;;26.07;47.78;101490.84;5036667;28;20070;-64
2022/07/11 09:06:11;;;;;;;0.10;0.10;;;;;;;26.11;48.00;101490.72;5032827;28;20516;-63
2022/07/11 09:08:37;;;;;;;0.73;0.20;;;;;;;26.18;47.83;101496.81;5040653;28;20513;-62
2022/07/11 09:11:04;;;;;;;0.22;0.15;;;;;;;26.39;47.71;101484.31;5038582;28;20079;-63
2022/07/11 09:13:50;;;;;;;1.48;0.40;;;;;;;26.23;46.94;101487.94;5037485;28;20198;-65
2022/07/11 09:16:17;;;;;;;0.43;0.35;;;;;;;26.15;47.40;101491.38;4963746;28;20587;-64
2022/07/11 09:18:43;;;;;;;2.05;0.20;;;;;;;26.27;48.50;101485.06;4978744;28;20085;-63
2022/07/11 09:26:51;;;;;;;2.17;0.30;;;;;;;25.93;47.56;101492.00;4969326;28;20474;-64
2022/07/11 09:29:20;;;;;;;1.40;0.30;;;;;;;26.42;48.50;101495.25;4966216;28;20093;-64
2022/07/11 09:31:47;;;;;;;0.40;0.17;;;;;;;26.76;47.40;101498.13;4984851;28;20042;-64
2022/07/11 09:34:15;;;;;;;0.85;0.30;;;;;;;27.06;47.28;101499.47;4982899;28;20452;-64
2022/07/11 09:36:46;;;;;;;0.40;0.20;;;;;;;27.24;46.86;101493.34;4985382;28;20034;-65
2022/07/11 09:39:13;;;;;;;2.90;0.20;;;;;;;27.45;46.46;101503.69;4957666;28;20062;-64
2022/07/11 09:41:39;;;;;;;0.55;0.30;;;;;;;27.59;44.84;101503.19;4979541;28;20405;-64
2022/07/11 09:44:08;;;;;;;0.30;0.15;;;;;;;27.44;43.41;101504.91;4960145;28;20168;-65
2022/07/11 09:46:35;;;;;;;0.30;0.20;;;;;;;27.61;45.14;101500.72;4982386;28;20050;-62
2022/07/11 09:49:01;;;;;;;0.20;0.20;;;;;;;27.68;44.01;101500.47;4948976;28;20046;-64
2022/07/11 09:51:27;;;;;;;0.60;0.10;;;;;;;27.53;44.55;101504.97;4976208;28;20433;-64
2022/07/11 09:53:57;;;;;;;0.40;0.20;;;;;;;27.62;44.30;101502.28;5027562;28;20557;-63
2022/07/11 09:56:33;;;;;;;0.52;0.20;;;;;;;27.66;44.23;101492.63;5043704;28;20044;-63
2022/07/11 09:59:00;;;;;;;0.15;0.10;;;;;;;27.78;44.57;101493.75;5039270;28;20090;-63
2022/07/11 10:01:27;;;;;;;1.75;0.20;;;;;;;27.82;43.59;101488.09;5043663;28;20020;-65
2022/07/11 10:03:53;;;;;;;0.57;0.20;;;;;;;27.52;43.86;101495.13;5044590;28;20434;-64
2022/07/11 10:06:18;;;;;;;0.17;0.17;;;;;;;27.47;43.99;101499.25;5043284;28;20078;-64
2022/07/11 10:08:44;;;;;;;0.75;0.30;;;;;;;27.63;43.93;101481.66;5043291;28;20398;-64
2022/07/11 10:11:11;;;;;;;0.15;0.08;;;;;;;27.91;43.11;101480.63;5044551;28;20098;-64
2022/07/11 10:13:38;;;;;;;0.25;0.20;;;;;;;28.11;43.26;101488.56;5045898;28;20075;-65
2022/07/11 10:16:17;;;;;;;0.95;0.25;;;;;;;28.18;43.19;101480.78;5042265;28;20053;-64
2022/07/11 10:18:53;;;;;;;0.30;0.13;;;;;;;28.04;43.34;101481.31;5042285;28;20107;-64
2022/07/11 10:21:30;;;;;;;0.15;0.15;;;;;;;28.13;43.93;101486.13;5040218;28;20055;-64
2022/07/11 10:24:20;;;;;;;0.28;0.20;;;;;;;27.88;43.76;101495.38;5004809;28;20029;-64
2022/07/11 10:26:59;;;;;;;0.90;0.25;;;;;;;27.90;43.95;101492.13;5042595;28;20051;-65
2022/07/11 10:29:33;;;;;;;0.10;0.10;;;;;;;27.96;42.63;101495.91;5042455;28;20478;-64
2022/07/11 10:32:05;;;;;;;0.13;0.13;;;;;;;28.00;41.94;101485.44;5045179;28;20110;-65
2022/07/11 10:34:31;;;;;;;0.75;0.13;;;;;;;28.10;43.41;101495.38;5043210;28;20059;-65
2022/07/11 10:37:08;;;;;;;0.20;0.20;;;;;;;28.07;43.27;101494.25;5023281;28;20164;-63
2022/07/11 10:39:36;;;;;;;0.68;0.20;;;;;;;27.96;43.67;101498.66;5029862;28;20029;-65
2022/07/11 10:42:04;;;;;;;0.40;0.20;;;;;;;28.11;43.54;101497.66;5014567;28;20119;-64
2022/07/11 10:44:51;;;;;;;0.10;0.10;;;;;;;28.31;42.40;101498.06;5042079;28;20025;-63
2022/07/11 10:47:36;;;;;;;1.33;0.20;;;;;;;28.72;41.39;101494.06;5024867;28;20382;-64
2022/07/11 10:50:35;;;;;;;0.38;0.28;;;;;;;29.07;41.68;101502.91;5028325;28;20051;-63
2022/07/11 10:53:07;;;;;;;0.47;0.20;;;;;;;29.35;41.88;101502.47;5046180;28;20036;-65
2022/07/11 10:55:47;;;;;;;0.50;0.20;;;;;;;29.65;41.98;101497.22;5044982;28;20164;-64
2022/07/11 10:58:28;;;;;;;1.20;0.20;;;;;;;29.73;40.88;101502.03;5041767;28;20075;-63
2022/07/11 11:01:11;;;;;;;1.85;0.28;;;;;;;29.76;39.93;101501.06;5043640;28;20761;-65
2022/07/11 11:03:37;;;;;;;0.30;0.20;;;;;;;29.61;40.16;101502.94;5042025;28;20033;-65
2022/07/11 11:06:03;;;;;;;0.47;0.10;;;;;;;29.50;39.79;101491.50;5044960;28;20067;-65
2022/07/11 11:08:31;;;;;;;0.20;0.20;;;;;;;29.47;39.29;101497.22;5044730;28;20071;-65
2022/07/11 11:11:11;;;;;;;0.57;0.10;;;;;;;29.51;38.13;101493.06;5042922;28;20063;-65
2022/07/11 11:13:36;;;;;;;1.27;0.20;;;;;;;29.51;38.17;101490.28;5045282;28;20091;-66
2022/07/11 11:16:22;;;;;;;0.95;0.20;;;;;;;29.71;40.09;101496.16;5046870;28;20422;-63
2022/07/11 11:18:48;;;;;;;0.20;0.20;;;;;;;29.70;41.28;101496.56;5041549;28;20073;-65
2022/07/11 11:21:21;;;;;;;0.95;0.15;;;;;;;29.58;40.84;101498.28;5026127;28;20558;-64
2022/07/11 11:23:58;;;;;;;0.20;0.10;;;;;;;29.82;41.68;101485.31;5044368;28;20043;-63
2022/07/11 11:26:24;;;;;;;0.17;0.17;;;;;;;30.13;40.05;101485.84;5043221;28;20070;-64
2022/07/11 11:29:05;;;;;;;1.30;0.30;;;;;;;30.39;39.22;101488.97;5026516;28;20475;-65
2022/07/11 11:31:32;;;;;;;0.75;0.20;;;;;;;30.37;38.65;101497.03;5043240;28;20499;-65
2022/07/11 11:34:01;;;;;;;0.43;0.30;;;;;;;30.50;37.72;101505.94;5044412;28;20029;-65
2022/07/11 11:36:27;;;;;;;1.55;0.10;;;;;;;30.30;37.29;101500.16;5043717;28;20045;-64